sensor_id;sensor_type;location;lat;lon;timestamp;pressure;altitude;pressure_sealevel;temperature;humidity
74615;BME280;63121;51.458;-0.110;2023-06-22T00:01:08;101735.78;;;23.39;53.14
74615;BME280;63121;51.458;-0.110;2023-06-22T00:03:33;101735.97;;;23.17;53.94
74615;BME280;63121;51.458;-0.110;2023-06-22T00:05:59;101741.28;;;23.34;53.51
74615;BME280;63121;51.458;-0.110;2023-06-22T00:08:24;101740.03;;;23.42;53.32
74615;BME280;63121;51.458;-0.110;2023-06-22T00:10:49;101739.84;;;23.27;53.21
74615;BME280;63121;51.458;-0.110;2023-06-22T00:13:15;101728.19;;;23.14;53.78
74615;BME280;63121;51.458;-0.110;2023-06-22T00:15:41;101727.44;;;23.29;53.51
74615;BME280;63121;51.458;-0.110;2023-06-22T00:18:08;101727.78;;;23.04;54.04
74615;BME280;63121;51.458;-0.110;2023-06-22T00:20:33;101734.03;;;23.02;54.14
74615;BME280;63121;51.458;-0.110;2023-06-22T00:23:01;101734.38;;;22.75;55.13
74615;BME280;63121;51.458;-0.110;2023-06-22T00:25:27;101726.09;;;22.64;55.35
74615;BME280;63121;51.458;-0.110;2023-06-22T00:27:52;101736.94;;;22.77;54.90
74615;BME280;63121;51.458;-0.110;2023-06-22T00:30:18;101736.59;;;22.84;54.86
74615;BME280;63121;51.458;-0.110;2023-06-22T00:32:45;101738.00;;;22.91;55.10
74615;BME280;63121;51.458;-0.110;2023-06-22T00:35:12;101735.66;;;22.85;54.99
74615;BME280;63121;51.458;-0.110;2023-06-22T00:37:38;101738.38;;;22.84;54.92
74615;BME280;63121;51.458;-0.110;2023-06-22T00:40:08;101737.91;;;22.55;55.60
74615;BME280;63121;51.458;-0.110;2023-06-22T00:42:34;101739.44;;;22.40;56.40
74615;BME280;63121;51.458;-0.110;2023-06-22T00:44:59;101741.72;;;22.29;56.33
74615;BME280;63121;51.458;-0.110;2023-06-22T00:47:24;101734.69;;;22.48;56.11
74615;BME280;63121;51.458;-0.110;2023-06-22T00:49:50;101738.91;;;22.52;55.91
74615;BME280;63121;51.458;-0.110;2023-06-22T00:52:20;101747.38;;;22.78;54.95
74615;BME280;63121;51.458;-0.110;2023-06-22T00:54:51;101746.47;;;22.98;54.71
74615;BME280;63121;51.458;-0.110;2023-06-22T00:57:17;101741.28;;;23.16;53.70
74615;BME280;63121;51.458;-0.110;2023-06-22T00:59:43;101742.78;;;22.83;54.47
74615;BME280;63121;51.458;-0.110;2023-06-22T01:02:09;101743.63;;;22.65;55.07
74615;BME280;63121;51.458;-0.110;2023-06-22T01:04:36;101732.06;;;22.48;55.88
74615;BME280;63121;51.458;-0.110;2023-06-22T01:07:39;101735.00;;;22.61;55.03
74615;BME280;63121;51.458;-0.110;2023-06-22T01:10:16;101731.28;;;22.46;55.47
74615;BME280;63121;51.458;-0.110;2023-06-22T01:12:55;101730.34;;;22.28;55.90
74615;BME280;63121;51.458;-0.110;2023-06-22T01:16:18;101732.19;;;22.26;55.93
74615;BME280;63121;51.458;-0.110;2023-06-22T01:18:26;101733.22;;;22.22;56.39
74615;BME280;63121;51.458;-0.110;2023-06-22T01:20:54;101731.47;;;22.23;56.22
74615;BME280;63121;51.458;-0.110;2023-06-22T01:26:16;101721.91;;;22.20;56.35
74615;BME280;63121;51.458;-0.110;2023-06-22T01:28:51;101729.25;;;22.32;55.81
74615;BME280;63121;51.458;-0.110;2023-06-22T01:31:20;101731.81;;;22.13;56.22
74615;BME280;63121;51.458;-0.110;2023-06-22T01:33:51;101732.09;;;22.28;55.88
74615;BME280;63121;51.458;-0.110;2023-06-22T01:36:18;101729.19;;;22.13;55.97
74615;BME280;63121;51.458;-0.110;2023-06-22T01:38:46;101720.97;;;22.42;55.26
74615;BME280;63121;51.458;-0.110;2023-06-22T01:41:12;101731.31;;;22.05;56.29
74615;BME280;63121;51.458;-0.110;2023-06-22T01:43:37;101737.69;;;22.20;55.84
74615;BME280;63121;51.458;-0.110;2023-06-22T01:46:03;101731.31;;;22.05;56.50
74615;BME280;63121;51.458;-0.110;2023-06-22T01:48:29;101728.84;;;22.21;56.05
74615;BME280;63121;51.458;-0.110;2023-06-22T01:50:55;101730.25;;;22.09;55.91
74615;BME280;63121;51.458;-0.110;2023-06-22T01:53:24;101733.38;;;22.18;55.97
74615;BME280;63121;51.458;-0.110;2023-06-22T01:55:49;101735.38;;;22.12;56.32
74615;BME280;63121;51.458;-0.110;2023-06-22T01:58:15;101736.00;;;22.18;55.74
74615;BME280;63121;51.458;-0.110;2023-06-22T02:00:45;101729.34;;;22.31;55.33
74615;BME280;63121;51.458;-0.110;2023-06-22T02:03:14;101731.63;;;21.98;56.25
74615;BME280;63121;51.458;-0.110;2023-06-22T02:05:49;101725.44;;;21.99;56.35
74615;BME280;63121;51.458;-0.110;2023-06-22T02:08:24;101719.66;;;22.11;55.96
74615;BME280;63121;51.458;-0.110;2023-06-22T02:10:51;101727.94;;;21.81;57.11
74615;BME280;63121;51.458;-0.110;2023-06-22T02:13:18;101720.06;;;22.02;56.13
74615;BME280;63121;51.458;-0.110;2023-06-22T02:15:45;101720.78;;;22.05;56.11
74615;BME280;63121;51.458;-0.110;2023-06-22T02:18:10;101729.06;;;21.96;56.78
74615;BME280;63121;51.458;-0.110;2023-06-22T02:20:37;101732.28;;;22.03;56.27
74615;BME280;63121;51.458;-0.110;2023-06-22T02:23:03;101726.19;;;22.23;55.53
74615;BME280;63121;51.458;-0.110;2023-06-22T02:25:28;101721.53;;;21.88;56.79
74615;BME280;63121;51.458;-0.110;2023-06-22T02:27:53;101718.81;;;22.10;55.84
74615;BME280;63121;51.458;-0.110;2023-06-22T02:30:19;101723.53;;;22.02;56.08
74615;BME280;63121;51.458;-0.110;2023-06-22T02:32:44;101725.91;;;22.08;55.97
74615;BME280;63121;51.458;-0.110;2023-06-22T02:35:09;101718.94;;;21.87;56.85
74615;BME280;63121;51.458;-0.110;2023-06-22T02:37:36;101718.47;;;21.98;56.34
74615;BME280;63121;51.458;-0.110;2023-06-22T02:40:05;101722.09;;;21.95;56.62
74615;BME280;63121;51.458;-0.110;2023-06-22T02:42:32;101720.19;;;21.99;56.27
74615;BME280;63121;51.458;-0.110;2023-06-22T02:44:57;101724.22;;;21.87;56.89
74615;BME280;63121;51.458;-0.110;2023-06-22T02:47:23;101726.50;;;21.52;57.63
74615;BME280;63121;51.458;-0.110;2023-06-22T02:49:48;101724.22;;;21.87;56.70
74615;BME280;63121;51.458;-0.110;2023-06-22T02:52:14;101729.31;;;21.90;56.89
74615;BME280;63121;51.458;-0.110;2023-06-22T02:54:39;101729.91;;;21.97;56.32
74615;BME280;63121;51.458;-0.110;2023-06-22T02:57:04;101729.47;;;21.87;57.02
74615;BME280;63121;51.458;-0.110;2023-06-22T02:59:30;101731.88;;;21.91;56.30
74615;BME280;63121;51.458;-0.110;2023-06-22T03:01:55;101743.91;;;21.77;57.19
74615;BME280;63121;51.458;-0.110;2023-06-22T03:04:21;101743.84;;;21.78;57.29
74615;BME280;63121;51.458;-0.110;2023-06-22T03:06:46;101733.84;;;21.66;57.68
74615;BME280;63121;51.458;-0.110;2023-06-22T03:09:16;101735.44;;;21.90;56.99
74615;BME280;63121;51.458;-0.110;2023-06-22T03:11:41;101730.72;;;21.78;56.88
74615;BME280;63121;51.458;-0.110;2023-06-22T03:14:07;101729.91;;;21.76;57.39
74615;BME280;63121;51.458;-0.110;2023-06-22T03:16:32;101729.50;;;21.65;57.79
74615;BME280;63121;51.458;-0.110;2023-06-22T03:18:59;101731.03;;;21.91;56.76
74615;BME280;63121;51.458;-0.110;2023-06-22T03:21:27;101733.53;;;21.74;57.12
74615;BME280;63121;51.458;-0.110;2023-06-22T03:23:53;101738.25;;;21.65;57.77
74615;BME280;63121;51.458;-0.110;2023-06-22T03:26:18;101733.59;;;21.50;57.75
74615;BME280;63121;51.458;-0.110;2023-06-22T03:28:44;101727.84;;;21.62;57.66
74615;BME280;63121;51.458;-0.110;2023-06-22T03:31:09;101724.03;;;21.49;58.09
74615;BME280;63121;51.458;-0.110;2023-06-22T03:33:34;101721.06;;;21.57;57.58
74615;BME280;63121;51.458;-0.110;2023-06-22T03:36:00;101720.34;;;21.53;57.99
74615;BME280;63121;51.458;-0.110;2023-06-22T03:38:25;101719.69;;;21.48;58.15
74615;BME280;63121;51.458;-0.110;2023-06-22T03:40:51;101722.59;;;21.40;58.39
74615;BME280;63121;51.458;-0.110;2023-06-22T03:43:16;101708.22;;;21.50;57.58
74615;BME280;63121;51.458;-0.110;2023-06-22T03:45:41;101706.19;;;21.57;57.87
74615;BME280;63121;51.458;-0.110;2023-06-22T03:48:07;101699.44;;;21.28;58.54
74615;BME280;63121;51.458;-0.110;2023-06-22T03:50:32;101695.66;;;21.13;58.77
74615;BME280;63121;51.458;-0.110;2023-06-22T03:52:57;101699.25;;;21.32;58.17
74615;BME280;63121;51.458;-0.110;2023-06-22T03:55:23;101693.47;;;21.24;58.48
74615;BME280;63121;51.458;-0.110;2023-06-22T03:57:48;101689.78;;;21.28;58.35
74615;BME280;63121;51.458;-0.110;2023-06-22T04:00:14;101687.56;;;21.40;58.18
74615;BME280;63121;51.458;-0.110;2023-06-22T04:02:41;101690.91;;;21.45;57.71
74615;BME280;63121;51.458;-0.110;2023-06-22T04:05:06;101693.91;;;21.36;58.12
74615;BME280;63121;51.458;-0.110;2023-06-22T04:07:31;101706.72;;;21.21;58.85
74615;BME280;63121;51.458;-0.110;2023-06-22T04:09:57;101697.88;;;21.24;58.86
74615;BME280;63121;51.458;-0.110;2023-06-22T04:12:22;101712.19;;;21.37;58.51
74615;BME280;63121;51.458;-0.110;2023-06-22T04:14:47;101713.19;;;21.35;58.34
74615;BME280;63121;51.458;-0.110;2023-06-22T04:17:13;101713.03;;;21.38;58.52
74615;BME280;63121;51.458;-0.110;2023-06-22T04:19:39;101717.97;;;21.47;57.98
74615;BME280;63121;51.458;-0.110;2023-06-22T04:22:05;101718.50;;;21.33;58.08
74615;BME280;63121;51.458;-0.110;2023-06-22T04:24:32;101733.41;;;21.32;58.33
74615;BME280;63121;51.458;-0.110;2023-06-22T04:26:58;101727.78;;;21.20;58.65
74615;BME280;63121;51.458;-0.110;2023-06-22T04:29:27;101723.84;;;21.31;58.72
74615;BME280;63121;51.458;-0.110;2023-06-22T04:31:58;101728.03;;;21.14;59.19
74615;BME280;63121;51.458;-0.110;2023-06-22T04:34:28;101723.03;;;21.29;58.81
74615;BME280;63121;51.458;-0.110;2023-06-22T04:36:54;101719.09;;;21.40;58.33
74615;BME280;63121;51.458;-0.110;2023-06-22T04:39:20;101721.16;;;21.55;57.55
74615;BME280;63121;51.458;-0.110;2023-06-22T04:41:46;101724.44;;;21.38;58.29
74615;BME280;63121;51.458;-0.110;2023-06-22T04:44:16;101715.78;;;21.79;57.15
74615;BME280;63121;51.458;-0.110;2023-06-22T04:46:52;101715.00;;;21.77;57.62
74615;BME280;63121;51.458;-0.110;2023-06-22T04:49:26;101710.13;;;21.88;57.34
74615;BME280;63121;51.458;-0.110;2023-06-22T04:51:58;101714.88;;;22.00;56.91
74615;BME280;63121;51.458;-0.110;2023-06-22T04:54:24;101716.44;;;22.04;56.43
74615;BME280;63121;51.458;-0.110;2023-06-22T04:56:49;101721.19;;;21.96;56.31
74615;BME280;63121;51.458;-0.110;2023-06-22T04:59:22;101715.91;;;21.96;57.06
74615;BME280;63121;51.458;-0.110;2023-06-22T05:01:47;101715.97;;;21.95;56.28
74615;BME280;63121;51.458;-0.110;2023-06-22T05:04:12;101705.75;;;21.88;57.20
74615;BME280;63121;51.458;-0.110;2023-06-22T05:06:38;101711.06;;;22.28;56.26
74615;BME280;63121;51.458;-0.110;2023-06-22T05:09:03;101718.28;;;22.02;56.80
74615;BME280;63121;51.458;-0.110;2023-06-22T05:11:30;101719.34;;;22.19;56.46
74615;BME280;63121;51.458;-0.110;2023-06-22T05:13:56;101729.56;;;22.26;55.77
74615;BME280;63121;51.458;-0.110;2023-06-22T05:16:22;101730.00;;;22.55;55.69
74615;BME280;63121;51.458;-0.110;2023-06-22T05:18:55;101724.34;;;22.45;55.29
74615;BME280;63121;51.458;-0.110;2023-06-22T05:21:26;101728.09;;;22.59;55.44
74615;BME280;63121;51.458;-0.110;2023-06-22T05:23:52;101730.75;;;22.59;54.97
74615;BME280;63121;51.458;-0.110;2023-06-22T05:26:21;101732.25;;;22.64;54.77
74615;BME280;63121;51.458;-0.110;2023-06-22T05:28:47;101735.78;;;22.82;54.93
74615;BME280;63121;51.458;-0.110;2023-06-22T05:31:16;101735.50;;;22.88;54.37
74615;BME280;63121;51.458;-0.110;2023-06-22T05:33:43;101724.16;;;23.07;53.82
74615;BME280;63121;51.458;-0.110;2023-06-22T05:36:09;101730.28;;;23.07;54.13
74615;BME280;63121;51.458;-0.110;2023-06-22T05:38:35;101727.84;;;23.22;53.58
74615;BME280;63121;51.458;-0.110;2023-06-22T05:41:01;101740.16;;;23.21;53.48
74615;BME280;63121;51.458;-0.110;2023-06-22T05:43:26;101739.00;;;22.89;53.90
74615;BME280;63121;51.458;-0.110;2023-06-22T05:45:51;101735.72;;;22.65;54.82
74615;BME280;63121;51.458;-0.110;2023-06-22T05:48:17;101736.53;;;22.86;54.52
74615;BME280;63121;51.458;-0.110;2023-06-22T05:50:42;101733.09;;;22.84;54.16
74615;BME280;63121;51.458;-0.110;2023-06-22T05:53:08;101735.44;;;22.90;54.34
74615;BME280;63121;51.458;-0.110;2023-06-22T05:55:33;101741.22;;;22.98;54.11
74615;BME280;63121;51.458;-0.110;2023-06-22T05:57:58;101744.34;;;23.06;53.79
74615;BME280;63121;51.458;-0.110;2023-06-22T06:00:24;101742.34;;;23.30;53.11
74615;BME280;63121;51.458;-0.110;2023-06-22T06:02:49;101737.53;;;23.21;53.36
74615;BME280;63121;51.458;-0.110;2023-06-22T06:05:15;101736.41;;;22.87;54.59
74615;BME280;63121;51.458;-0.110;2023-06-22T06:07:42;101741.50;;;22.73;55.28
74615;BME280;63121;51.458;-0.110;2023-06-22T06:10:08;101735.44;;;22.52;55.20
74615;BME280;63121;51.458;-0.110;2023-06-22T06:12:33;101744.00;;;23.14;53.87
74615;BME280;63121;51.458;-0.110;2023-06-22T06:14:59;101744.53;;;22.64;55.01
74615;BME280;63121;51.458;-0.110;2023-06-22T06:17:24;101738.94;;;22.90;54.51
74615;BME280;63121;51.458;-0.110;2023-06-22T06:19:49;101741.06;;;22.82;54.91
74615;BME280;63121;51.458;-0.110;2023-06-22T06:22:15;101733.59;;;23.30;53.38
74615;BME280;63121;51.458;-0.110;2023-06-22T06:24:40;101733.06;;;23.41;53.42
74615;BME280;63121;51.458;-0.110;2023-06-22T06:27:06;101736.41;;;23.25;53.92
74615;BME280;63121;51.458;-0.110;2023-06-22T06:29:34;101735.78;;;23.57;53.16
74615;BME280;63121;51.458;-0.110;2023-06-22T06:31:59;101731.34;;;23.40;53.48
74615;BME280;63121;51.458;-0.110;2023-06-22T06:34:24;101734.22;;;23.35;52.98
74615;BME280;63121;51.458;-0.110;2023-06-22T06:36:50;101732.25;;;22.83;54.31
74615;BME280;63121;51.458;-0.110;2023-06-22T06:39:15;101727.13;;;23.18;53.96
74615;BME280;63121;51.458;-0.110;2023-06-22T06:41:41;101720.16;;;23.17;53.76
74615;BME280;63121;51.458;-0.110;2023-06-22T06:44:07;101721.59;;;23.05;54.23
74615;BME280;63121;51.458;-0.110;2023-06-22T06:46:32;101717.69;;;23.31;53.53
74615;BME280;63121;51.458;-0.110;2023-06-22T06:48:57;101715.41;;;23.43;53.34
74615;BME280;63121;51.458;-0.110;2023-06-22T06:51:23;101719.56;;;22.91;54.35
74615;BME280;63121;51.458;-0.110;2023-06-22T06:53:48;101711.59;;;22.74;55.10
74615;BME280;63121;51.458;-0.110;2023-06-22T06:56:13;101723.38;;;23.05;54.50
74615;BME280;63121;51.458;-0.110;2023-06-22T06:58:42;101712.69;;;23.08;54.07
74615;BME280;63121;51.458;-0.110;2023-06-22T07:01:08;101716.63;;;22.98;54.66
74615;BME280;63121;51.458;-0.110;2023-06-22T07:03:33;101716.09;;;22.72;55.30
74615;BME280;63121;51.458;-0.110;2023-06-22T07:05:59;101715.66;;;22.62;55.67
74615;BME280;63121;51.458;-0.110;2023-06-22T07:08:24;101717.38;;;23.20;54.44
74615;BME280;63121;51.458;-0.110;2023-06-22T07:10:51;101717.16;;;23.79;52.26
74615;BME280;63121;51.458;-0.110;2023-06-22T07:13:17;101720.66;;;23.43;53.61
74615;BME280;63121;51.458;-0.110;2023-06-22T07:15:42;101724.13;;;23.97;51.34
74615;BME280;63121;51.458;-0.110;2023-06-22T07:18:08;101727.78;;;24.28;51.15
74615;BME280;63121;51.458;-0.110;2023-06-22T07:20:33;101721.09;;;24.05;51.72
74615;BME280;63121;51.458;-0.110;2023-06-22T07:22:58;101724.44;;;23.91;51.87
74615;BME280;63121;51.458;-0.110;2023-06-22T07:25:24;101718.66;;;24.18;51.29
74615;BME280;63121;51.458;-0.110;2023-06-22T07:28:00;101721.19;;;24.54;50.05
74615;BME280;63121;51.458;-0.110;2023-06-22T07:30:27;101714.31;;;24.17;50.79
74615;BME280;63121;51.458;-0.110;2023-06-22T07:32:52;101711.97;;;24.77;49.67
74615;BME280;63121;51.458;-0.110;2023-06-22T07:35:18;101707.03;;;24.55;50.29
74615;BME280;63121;51.458;-0.110;2023-06-22T07:37:43;101707.47;;;24.79;49.17
74615;BME280;63121;51.458;-0.110;2023-06-22T07:40:09;101706.69;;;25.41;48.18
74615;BME280;63121;51.458;-0.110;2023-06-22T07:42:35;101699.59;;;25.41;47.81
74615;BME280;63121;51.458;-0.110;2023-06-22T07:45:01;101708.91;;;25.32;48.17
74615;BME280;63121;51.458;-0.110;2023-06-22T07:47:27;101712.00;;;25.09;48.76
74615;BME280;63121;51.458;-0.110;2023-06-22T07:49:54;101712.00;;;24.93;48.66
74615;BME280;63121;51.458;-0.110;2023-06-22T07:52:21;101712.81;;;25.41;47.54
74615;BME280;63121;51.458;-0.110;2023-06-22T07:54:46;101714.84;;;25.36;48.21
74615;BME280;63121;51.458;-0.110;2023-06-22T07:57:12;101708.75;;;25.66;46.98
74615;BME280;63121;51.458;-0.110;2023-06-22T07:59:37;101707.41;;;26.03;46.35
74615;BME280;63121;51.458;-0.110;2023-06-22T08:02:03;101706.94;;;25.66;47.07
74615;BME280;63121;51.458;-0.110;2023-06-22T08:04:29;101701.94;;;25.92;46.64
74615;BME280;63121;51.458;-0.110;2023-06-22T08:06:56;101696.56;;;25.93;46.62
74615;BME280;63121;51.458;-0.110;2023-06-22T08:09:22;101698.97;;;25.52;47.38
74615;BME280;63121;51.458;-0.110;2023-06-22T08:11:47;101698.19;;;25.80;46.61
74615;BME280;63121;51.458;-0.110;2023-06-22T08:14:14;101695.16;;;26.16;46.26
74615;BME280;63121;51.458;-0.110;2023-06-22T08:16:41;101692.31;;;26.20;46.43
74615;BME280;63121;51.458;-0.110;2023-06-22T08:19:06;101691.16;;;26.24;46.28
74615;BME280;63121;51.458;-0.110;2023-06-22T08:21:32;101692.31;;;26.34;46.02
74615;BME280;63121;51.458;-0.110;2023-06-22T08:23:57;101701.56;;;26.41;45.28
74615;BME280;63121;51.458;-0.110;2023-06-22T08:26:22;101697.69;;;26.75;44.54
74615;BME280;63121;51.458;-0.110;2023-06-22T08:28:48;101699.44;;;26.89;44.15
74615;BME280;63121;51.458;-0.110;2023-06-22T08:31:14;101700.03;;;26.37;45.33
74615;BME280;63121;51.458;-0.110;2023-06-22T08:33:39;101689.31;;;26.82;44.31
74615;BME280;63121;51.458;-0.110;2023-06-22T08:36:05;101698.63;;;26.60;44.93
74615;BME280;63121;51.458;-0.110;2023-06-22T08:38:31;101693.06;;;26.92;43.57
74615;BME280;63121;51.458;-0.110;2023-06-22T08:40:57;101688.41;;;27.37;42.56
74615;BME280;63121;51.458;-0.110;2023-06-22T08:43:22;101686.72;;;27.49;42.10
74615;BME280;63121;51.458;-0.110;2023-06-22T08:45:48;101687.59;;;27.49;42.34
74615;BME280;63121;51.458;-0.110;2023-06-22T08:48:14;101686.09;;;27.45;43.23
74615;BME280;63121;51.458;-0.110;2023-06-22T08:50:39;101683.81;;;27.26;42.99
74615;BME280;63121;51.458;-0.110;2023-06-22T08:53:05;101678.06;;;26.92;43.48
74615;BME280;63121;51.458;-0.110;2023-06-22T08:55:31;101674.97;;;27.66;42.36
74615;BME280;63121;51.458;-0.110;2023-06-22T08:57:56;101683.13;;;27.50;42.05
74615;BME280;63121;51.458;-0.110;2023-06-22T09:00:22;101683.28;;;27.34;42.37
74615;BME280;63121;51.458;-0.110;2023-06-22T09:02:48;101681.72;;;27.44;42.44
74615;BME280;63121;51.458;-0.110;2023-06-22T09:05:13;101682.44;;;27.99;41.17
74615;BME280;63121;51.458;-0.110;2023-06-22T09:07:39;101690.94;;;28.17;40.19
74615;BME280;63121;51.458;-0.110;2023-06-22T09:10:05;101691.63;;;28.57;39.87
74615;BME280;63121;51.458;-0.110;2023-06-22T09:12:31;101698.53;;;28.60;39.28
74615;BME280;63121;51.458;-0.110;2023-06-22T09:14:58;101687.41;;;29.16;38.42
74615;BME280;63121;51.458;-0.110;2023-06-22T09:17:25;101691.53;;;29.20;38.62
74615;BME280;63121;51.458;-0.110;2023-06-22T09:19:51;101698.06;;;29.03;38.77
74615;BME280;63121;51.458;-0.110;2023-06-22T09:22:16;101689.03;;;29.06;38.69
74615;BME280;63121;51.458;-0.110;2023-06-22T09:24:41;101688.56;;;29.36;37.71
74615;BME280;63121;51.458;-0.110;2023-06-22T09:27:07;101689.22;;;29.03;38.13
74615;BME280;63121;51.458;-0.110;2023-06-22T09:29:32;101687.09;;;29.32;37.94
74615;BME280;63121;51.458;-0.110;2023-06-22T09:31:59;101685.53;;;29.29;37.77
74615;BME280;63121;51.458;-0.110;2023-06-22T09:34:25;101685.88;;;29.25;37.94
74615;BME280;63121;51.458;-0.110;2023-06-22T09:36:51;101692.41;;;29.08;38.32
74615;BME280;63121;51.458;-0.110;2023-06-22T09:39:18;101689.31;;;29.49;36.95
74615;BME280;63121;51.458;-0.110;2023-06-22T09:41:43;101692.72;;;29.98;35.68
74615;BME280;63121;51.458;-0.110;2023-06-22T09:44:08;101697.56;;;30.15;34.99
74615;BME280;63121;51.458;-0.110;2023-06-22T09:46:34;101689.81;;;30.01;36.11
74615;BME280;63121;51.458;-0.110;2023-06-22T09:48:59;101697.56;;;30.60;35.00
74615;BME280;63121;51.458;-0.110;2023-06-22T09:51:24;101690.72;;;30.90;33.97
74615;BME280;63121;51.458;-0.110;2023-06-22T09:53:50;101694.66;;;30.64;34.34
74615;BME280;63121;51.458;-0.110;2023-06-22T09:56:16;101686.03;;;30.71;34.10
74615;BME280;63121;51.458;-0.110;2023-06-22T09:58:42;101682.19;;;30.64;34.42
74615;BME280;63121;51.458;-0.110;2023-06-22T10:01:08;101682.00;;;30.88;33.80
74615;BME280;63121;51.458;-0.110;2023-06-22T10:03:33;101686.56;;;31.09;33.63
74615;BME280;63121;51.458;-0.110;2023-06-22T10:05:59;101680.56;;;31.49;32.89
74615;BME280;63121;51.458;-0.110;2023-06-22T10:08:24;101680.16;;;31.74;32.55
74615;BME280;63121;51.458;-0.110;2023-06-22T10:10:49;101674.03;;;31.42;32.31
74615;BME280;63121;51.458;-0.110;2023-06-22T10:13:15;101679.81;;;31.26;32.18
74615;BME280;63121;51.458;-0.110;2023-06-22T10:15:42;101672.44;;;31.50;32.08
74615;BME280;63121;51.458;-0.110;2023-06-22T10:18:07;101669.19;;;31.47;31.56
74615;BME280;63121;51.458;-0.110;2023-06-22T10:20:33;101671.53;;;31.92;31.13
74615;BME280;63121;51.458;-0.110;2023-06-22T10:22:58;101667.63;;;31.65;31.57
74615;BME280;63121;51.458;-0.110;2023-06-22T10:25:24;101667.34;;;31.68;31.26
74615;BME280;63121;51.458;-0.110;2023-06-22T10:27:50;101665.78;;;31.66;31.09
74615;BME280;63121;51.458;-0.110;2023-06-22T10:30:15;101671.38;;;31.84;30.39
74615;BME280;63121;51.458;-0.110;2023-06-22T10:32:42;101669.72;;;31.92;30.44
74615;BME280;63121;51.458;-0.110;2023-06-22T10:35:09;101665.41;;;31.49;30.89
74615;BME280;63121;51.458;-0.110;2023-06-22T10:37:36;101659.25;;;31.79;30.42
74615;BME280;63121;51.458;-0.110;2023-06-22T10:40:01;101658.38;;;31.16;30.86
74615;BME280;63121;51.458;-0.110;2023-06-22T10:42:26;101655.22;;;30.90;31.51
74615;BME280;63121;51.458;-0.110;2023-06-22T10:44:52;101661.41;;;30.90;30.18
74615;BME280;63121;51.458;-0.110;2023-06-22T10:47:17;101660.25;;;31.57;29.43
74615;BME280;63121;51.458;-0.110;2023-06-22T10:49:42;101661.91;;;30.73;29.92
74615;BME280;63121;51.458;-0.110;2023-06-22T10:52:08;101660.34;;;31.35;29.76
74615;BME280;63121;51.458;-0.110;2023-06-22T10:54:35;101658.22;;;30.96;29.90
74615;BME280;63121;51.458;-0.110;2023-06-22T10:57:01;101654.34;;;31.00;30.04
74615;BME280;63121;51.458;-0.110;2023-06-22T10:59:27;101653.19;;;31.14;30.21
74615;BME280;63121;51.458;-0.110;2023-06-22T11:01:54;101655.66;;;31.06;29.86
74615;BME280;63121;51.458;-0.110;2023-06-22T11:04:20;101658.31;;;31.06;30.33
74615;BME280;63121;51.458;-0.110;2023-06-22T11:06:45;101658.94;;;31.31;29.50
74615;BME280;63121;51.458;-0.110;2023-06-22T11:09:10;101652.16;;;31.69;29.21
74615;BME280;63121;51.458;-0.110;2023-06-22T11:11:35;101658.59;;;32.18;28.53
74615;BME280;63121;51.458;-0.110;2023-06-22T11:14:01;101656.69;;;32.39;28.18
74615;BME280;63121;51.458;-0.110;2023-06-22T11:16:27;101658.13;;;32.03;28.52
74615;BME280;63121;51.458;-0.110;2023-06-22T11:18:52;101657.84;;;32.06;28.26
74615;BME280;63121;51.458;-0.110;2023-06-22T11:21:17;101657.69;;;32.48;28.03
74615;BME280;63121;51.458;-0.110;2023-06-22T11:23:43;101657.38;;;32.92;27.51
74615;BME280;63121;51.458;-0.110;2023-06-22T11:26:08;101656.38;;;32.73;26.11
74615;BME280;63121;51.458;-0.110;2023-06-22T11:28:33;101653.44;;;32.26;26.72
74615;BME280;63121;51.458;-0.110;2023-06-22T11:30:59;101652.31;;;32.29;26.87
74615;BME280;63121;51.458;-0.110;2023-06-22T11:33:24;101653.25;;;32.58;26.37
74615;BME280;63121;51.458;-0.110;2023-06-22T11:35:50;101647.63;;;32.71;25.96
74615;BME280;63121;51.458;-0.110;2023-06-22T11:38:15;101649.75;;;32.58;26.72
74615;BME280;63121;51.458;-0.110;2023-06-22T11:40:40;101639.91;;;32.28;27.33
74615;BME280;63121;51.458;-0.110;2023-06-22T11:43:06;101646.63;;;31.82;28.70
74615;BME280;63121;51.458;-0.110;2023-06-22T11:45:31;101635.06;;;31.50;27.81
74615;BME280;63121;51.458;-0.110;2023-06-22T11:47:56;101634.13;;;31.40;27.87
74615;BME280;63121;51.458;-0.110;2023-06-22T11:50:22;101637.72;;;31.71;27.34
74615;BME280;63121;51.458;-0.110;2023-06-22T11:52:47;101633.84;;;32.16;26.30
74615;BME280;63121;51.458;-0.110;2023-06-22T11:55:12;101631.84;;;32.08;26.98
74615;BME280;63121;51.458;-0.110;2023-06-22T11:57:39;101625.69;;;31.56;27.07
74615;BME280;63121;51.458;-0.110;2023-06-22T12:00:16;101631.59;;;32.11;26.80
74615;BME280;63121;51.458;-0.110;2023-06-22T12:02:43;101625.63;;;32.48;26.25
74615;BME280;63121;51.458;-0.110;2023-06-22T12:05:10;101627.97;;;32.32;26.33
74615;BME280;63121;51.458;-0.110;2023-06-22T12:07:36;101625.25;;;32.82;25.83
74615;BME280;63121;51.458;-0.110;2023-06-22T12:10:01;101615.72;;;32.89;25.90
74615;BME280;63121;51.458;-0.110;2023-06-22T12:12:27;101615.72;;;33.18;25.58
74615;BME280;63121;51.458;-0.110;2023-06-22T12:14:52;101614.00;;;33.27;25.59
74615;BME280;63121;51.458;-0.110;2023-06-22T12:17:17;101609.16;;;32.43;26.71
74615;BME280;63121;51.458;-0.110;2023-06-22T12:19:43;101608.84;;;32.27;27.13
74615;BME280;63121;51.458;-0.110;2023-06-22T12:22:08;101608.94;;;32.75;25.74
74615;BME280;63121;51.458;-0.110;2023-06-22T12:24:33;101610.78;;;32.55;25.43
74615;BME280;63121;51.458;-0.110;2023-06-22T12:26:59;101609.53;;;32.09;25.96
74615;BME280;63121;51.458;-0.110;2023-06-22T12:29:24;101614.69;;;32.01;24.81
74615;BME280;63121;51.458;-0.110;2023-06-22T12:31:49;101611.41;;;32.38;25.15
74615;BME280;63121;51.458;-0.110;2023-06-22T12:34:15;101605.69;;;33.01;25.14
74615;BME280;63121;51.458;-0.110;2023-06-22T12:36:40;101605.06;;;32.49;25.67
74615;BME280;63121;51.458;-0.110;2023-06-22T12:39:06;101598.78;;;32.89;25.65